Time;durP1;ratioP1;P1;durP2;ratioP2;P2;SDS_P1;SDS_P2;PMS_P1;PMS_P2;Temp;Humidity;BMP_temperature;BMP_pressure;BME280_temperature;BME280_humidity;BME280_pressure;Samples;Min_cycle;Max_cycle;Signal;HPM_P1;HPM_P2
2022/10/26 04:01:50;;;;;;;7.60;4.10;;;13.00;99.90;;;;;;5427039;22;20983;-74
2022/10/26 04:04:17;;;;;;;13.63;4.10;;;13.00;99.90;;;;;;5006021;28;20462;-74
2022/10/26 04:06:43;;;;;;;10.00;3.73;;;13.10;99.90;;;;;;5006222;28;20466;-74
2022/10/26 04:09:10;;;;;;;6.00;3.60;;;13.10;99.90;;;;;;5006449;28;20506;-73
2022/10/26 04:11:37;;;;;;;6.43;4.07;;;13.10;99.90;;;;;;5006226;28;20485;-74
2022/10/26 04:14:03;;;;;;;8.33;3.90;;;13.10;99.90;;;;;;5006188;28;20455;-74
2022/10/26 04:16:30;;;;;;;9.73;3.60;;;13.10;99.90;;;;;;5006538;28;20454;-74
2022/10/26 04:18:58;;;;;;;11.27;4.00;;;13.10;99.90;;;;;;5006468;28;20470;-73
2022/10/26 04:21:25;;;;;;;7.60;4.10;;;13.10;99.90;;;;;;5005448;28;20486;-75
2022/10/26 04:23:52;;;;;;;6.23;3.60;;;13.10;99.90;;;;;;5006309;28;20830;-75
2022/10/26 04:26:18;;;;;;;5.03;3.77;;;13.10;99.90;;;;;;5005515;28;20459;-75
2022/10/26 04:28:45;;;;;;;16.90;4.70;;;13.10;99.90;;;;;;5006350;28;20495;-75
2022/10/26 04:31:12;;;;;;;8.07;3.73;;;13.10;99.90;;;;;;5005345;28;20474;-75
2022/10/26 04:33:39;;;;;;;6.03;4.00;;;13.10;99.90;;;;;;5006493;28;20443;-74
2022/10/26 04:36:08;;;;;;;14.03;3.90;;;13.10;99.90;;;;;;5005806;28;20459;-68
2022/10/26 04:38:34;;;;;;;8.73;3.73;;;13.10;99.90;;;;;;5007069;28;20458;-66
2022/10/26 04:41:01;;;;;;;4.47;3.70;;;13.00;99.90;;;;;;5006780;28;20471;-67
2022/10/26 04:43:28;;;;;;;7.80;3.90;;;13.00;99.90;;;;;;5006793;28;20549;-69
2022/10/26 04:45:56;;;;;;;9.10;4.37;;;13.00;99.90;;;;;;5006388;28;20827;-67
2022/10/26 04:48:23;;;;;;;6.63;4.30;;;12.90;99.90;;;;;;5007129;28;20505;-72
2022/10/26 04:50:49;;;;;;;12.83;4.30;;;12.90;99.90;;;;;;5005911;28;20478;-73
2022/10/26 04:53:18;;;;;;;5.77;3.97;;;12.90;99.90;;;;;;5005779;28;20458;-72
2022/10/26 04:55:44;;;;;;;7.50;4.77;;;13.00;99.90;;;;;;5005336;28;20446;-73
2022/10/26 04:58:11;;;;;;;12.17;3.50;;;13.00;99.90;;;;;;5006001;28;20461;-73
2022/10/26 05:00:38;;;;;;;7.00;3.57;;;13.00;99.90;;;;;;5018084;28;20489;-73
2022/10/26 05:03:06;;;;;;;7.93;3.77;;;13.00;99.90;;;;;;5025577;28;20460;-73
2022/10/26 05:05:35;;;;;;;9.23;3.83;;;13.00;99.90;;;;;;5024604;28;20465;-74
2022/10/26 05:08:02;;;;;;;7.17;4.30;;;13.10;99.90;;;;;;5025511;28;20456;-73
2022/10/26 05:10:30;;;;;;;7.83;3.70;;;13.10;99.90;;;;;;5025328;28;20862;-74
2022/10/26 05:12:59;;;;;;;11.50;4.50;;;13.10;99.90;;;;;;5025165;28;20945;-73
2022/10/26 05:15:26;;;;;;;10.20;4.77;;;13.10;99.90;;;;;;5011252;28;20447;-74
2022/10/26 05:17:57;;;;;;;6.10;4.00;;;13.10;99.90;;;;;;5005446;28;20473;-74
2022/10/26 05:20:28;;;;;;;6.80;4.20;;;13.10;99.90;;;;;;5005196;28;20938;-74
2022/10/26 05:22:55;;;;;;;7.70;3.50;;;13.10;99.90;;;;;;5005540;28;20494;-74
2022/10/26 05:25:22;;;;;;;9.30;4.30;;;13.10;99.90;;;;;;5008197;28;20458;-74
2022/10/26 05:27:50;;;;;;;12.10;3.93;;;13.10;99.90;;;;;;5009413;28;20450;-74
2022/10/26 05:30:17;;;;;;;5.07;4.23;;;13.10;99.90;;;;;;5008356;28;20494;-74
2022/10/26 05:32:44;;;;;;;6.87;4.13;;;13.10;99.90;;;;;;5009352;28;20455;-74
2022/10/26 05:35:10;;;;;;;9.60;4.10;;;13.10;99.90;;;;;;5008620;28;20850;-73
2022/10/26 05:37:37;;;;;;;8.43;4.40;;;13.10;99.90;;;;;;5009248;28;20951;-74
2022/10/26 05:40:05;;;;;;;7.00;3.97;;;13.10;99.90;;;;;;5019313;28;20450;-73
2022/10/26 05:42:31;;;;;;;12.70;4.10;;;13.20;99.90;;;;;;5027162;28;20859;-73
2022/10/26 05:44:59;;;;;;;7.00;3.70;;;13.20;99.90;;;;;;5027118;28;20457;-74
2022/10/26 05:47:26;;;;;;;4.57;2.93;;;13.20;99.90;;;;;;5028036;28;20469;-73
2022/10/26 05:49:53;;;;;;;16.03;4.23;;;13.20;99.90;;;;;;5027972;28;20504;-73
2022/10/26 05:52:20;;;;;;;4.97;4.37;;;13.20;99.90;;;;;;5011170;28;20502;-74
2022/10/26 05:54:46;;;;;;;5.73;3.60;;;13.20;99.90;;;;;;5007010;28;21155;-74
2022/10/26 05:57:14;;;;;;;5.50;3.87;;;13.30;99.90;;;;;;5006068;28;21293;-73
2022/10/26 05:59:41;;;;;;;9.70;4.87;;;13.30;99.90;;;;;;5022526;28;20438;-73
2022/10/26 06:02:18;;;;;;;10.07;4.47;;;13.20;99.90;;;;;;5027129;28;20490;-74
2022/10/26 06:04:47;;;;;;;4.47;4.07;;;13.20;99.90;;;;;;4987823;28;20455;-74
2022/10/26 06:07:16;;;;;;;6.90;4.27;;;13.10;99.90;;;;;;4988532;28;20456;-73
2022/10/26 06:09:44;;;;;;;6.80;4.23;;;13.10;99.90;;;;;;4988874;28;20495;-74
2022/10/26 06:12:12;;;;;;;5.30;3.70;;;13.10;99.90;;;;;;4988450;28;20846;-74
2022/10/26 06:14:39;;;;;;;7.87;4.87;;;13.20;99.90;;;;;;4987982;28;20462;-73
2022/10/26 06:17:24;;;;;;;9.63;5.03;;;13.20;99.90;;;;;;4989136;28;20474;-74
2022/10/26 06:20:02;;;;;;;5.67;4.33;;;13.20;99.90;;;;;;4988845;28;20463;-75
2022/10/26 06:22:47;;;;;;;7.37;4.57;;;13.20;99.90;;;;;;4988868;28;20475;-74
2022/10/26 06:25:27;;;;;;;11.53;4.70;;;13.20;99.90;;;;;;4988160;28;20444;-74
2022/10/26 06:28:05;;;;;;;6.73;3.93;;;13.20;99.90;;;;;;4989290;28;20443;-74
2022/10/26 06:30:32;;;;;;;7.67;4.20;;;13.20;99.90;;;;;;4989110;28;20503;-73
2022/10/26 06:33:00;;;;;;;13.80;4.70;;;13.20;99.90;;;;;;4988367;28;20464;-73
2022/10/26 06:35:35;;;;;;;10.77;4.30;;;13.20;99.90;;;;;;4999351;28;20974;-73
2022/10/26 06:38:06;;;;;;;6.40;4.60;;;13.20;99.90;;;;;;5008009;28;20901;-73
2022/10/26 06:40:36;;;;;;;7.13;4.00;;;13.20;99.90;;;;;;5008471;28;20486;-73
2022/10/26 06:43:04;;;;;;;8.50;4.97;;;13.20;99.90;;;;;;5008227;28;20461;-73
2022/10/26 06:45:32;;;;;;;11.87;5.57;;;13.20;99.90;;;;;;5007646;28;20530;-73
2022/10/26 06:48:08;;;;;;;11.20;5.33;;;13.20;99.90;;;;;;5007995;28;20463;-73
2022/10/26 06:50:37;;;;;;;9.60;5.27;;;13.20;99.90;;;;;;5007956;28;20520;-73
2022/10/26 06:53:18;;;;;;;10.77;5.30;;;13.20;99.90;;;;;;5008024;28;20517;-73
2022/10/26 06:55:48;;;;;;;12.00;5.53;;;13.20;99.90;;;;;;5006978;28;20447;-73
2022/10/26 06:58:17;;;;;;;9.20;5.57;;;13.30;99.90;;;;;;5007648;28;20513;-73
2022/10/26 07:00:46;;;;;;;13.30;5.73;;;13.30;99.90;;;;;;5007840;28;20490;-73
2022/10/26 07:03:14;;;;;;;15.30;6.90;;;13.30;99.90;;;;;;5008048;28;20532;-73
2022/10/26 07:05:41;;;;;;;15.93;6.50;;;13.30;99.90;;;;;;5007254;28;20819;-73
2022/10/26 07:08:08;;;;;;;11.63;4.20;;;13.30;99.90;;;;;;5007487;28;20461;-73
2022/10/26 07:10:37;;;;;;;6.67;4.03;;;13.30;99.90;;;;;;5007500;28;20494;-73
2022/10/26 07:13:04;;;;;;;7.13;4.00;;;13.30;99.90;;;;;;5007809;28;20553;-73
2022/10/26 07:15:31;;;;;;;5.60;4.00;;;13.40;99.90;;;;;;5007128;28;20459;-73
2022/10/26 07:17:58;;;;;;;8.73;5.17;;;13.40;99.90;;;;;;5007738;28;20462;-73
2022/10/26 07:20:26;;;;;;;10.27;5.00;;;13.40;99.90;;;;;;5007524;28;20447;-73
2022/10/26 07:22:53;;;;;;;8.50;5.50;;;13.50;99.90;;;;;;5007653;28;20812;-73
2022/10/26 07:25:20;;;;;;;9.97;5.07;;;13.40;99.90;;;;;;5006271;28;20470;-73
2022/10/26 07:27:47;;;;;;;8.77;5.17;;;13.50;99.90;;;;;;5007480;28;20559;-73
2022/10/26 07:30:14;;;;;;;8.10;5.00;;;13.50;99.90;;;;;;5007596;28;20491;-73
2022/10/26 07:32:41;;;;;;;11.63;4.60;;;13.50;99.90;;;;;;5007170;28;20462;-74
2022/10/26 07:35:08;;;;;;;7.90;5.20;;;13.50;99.90;;;;;;5006708;28;20458;-67
2022/10/26 07:37:36;;;;;;;11.43;4.93;;;13.50;99.90;;;;;;5007295;28;20466;-67
2022/10/26 07:40:04;;;;;;;6.10;4.60;;;13.50;99.90;;;;;;5007448;28;20455;-67
2022/10/26 07:42:30;;;;;;;7.47;4.50;;;13.50;99.90;;;;;;5012723;28;20475;-73
2022/10/26 07:44:57;;;;;;;5.90;4.80;;;13.50;99.90;;;;;;5006120;28;20966;-73
2022/10/26 07:47:24;;;;;;;7.33;4.47;;;13.60;99.90;;;;;;5006964;28;20459;-74
2022/10/26 07:49:51;;;;;;;6.03;4.70;;;13.60;99.90;;;;;;5006952;28;21301;-73
2022/10/26 07:52:17;;;;;;;8.60;5.27;;;13.60;99.90;;;;;;5006933;28;20475;-73
2022/10/26 07:54:45;;;;;;;5.70;5.07;;;13.60;99.90;;;;;;5005968;28;20459;-74
2022/10/26 07:57:12;;;;;;;14.57;4.97;;;13.60;99.90;;;;;;5006860;28;20462;-73
2022/10/26 07:59:39;;;;;;;7.13;4.47;;;13.70;99.90;;;;;;5006664;28;20510;-73
2022/10/26 08:02:06;;;;;;;8.37;4.17;;;13.70;99.90;;;;;;5006893;28;20512;-74
2022/10/26 08:04:33;;;;;;;8.87;4.67;;;13.70;99.90;;;;;;5006171;28;21306;-73
2022/10/26 08:06:59;;;;;;;7.10;5.00;;;13.70;99.90;;;;;;5005057;28;20455;-73
2022/10/26 08:09:26;;;;;;;5.97;4.17;;;13.70;99.90;;;;;;5005692;28;20509;-73
2022/10/26 08:11:54;;;;;;;10.93;5.87;;;13.70;99.90;;;;;;5006638;28;20474;-73
2022/10/26 08:14:21;;;;;;;12.50;5.20;;;13.70;99.90;;;;;;5006106;28;20485;-73
2022/10/26 08:16:51;;;;;;;8.50;4.70;;;13.70;99.90;;;;;;5006438;28;21001;-74
2022/10/26 08:19:17;;;;;;;6.03;4.70;;;13.80;99.90;;;;;;5006353;28;20509;-73
2022/10/26 08:21:44;;;;;;;10.13;5.50;;;13.80;99.90;;;;;;5006140;28;20489;-74
2022/10/26 08:24:11;;;;;;;7.40;4.80;;;13.80;99.90;;;;;;5005770;28;20458;-73
2022/10/26 08:26:38;;;;;;;7.40;4.53;;;13.80;99.90;;;;;;5006518;28;20862;-74
2022/10/26 08:29:06;;;;;;;9.03;4.53;;;13.80;99.90;;;;;;5006403;28;20455;-74
2022/10/26 08:31:33;;;;;;;7.27;4.50;;;13.90;99.90;;;;;;5006109;28;20507;-74
2022/10/26 08:34:00;;;;;;;7.20;4.93;;;13.90;99.90;;;;;;5005897;28;20496;-74
2022/10/26 08:36:28;;;;;;;10.77;4.40;;;14.00;99.90;;;;;;5005463;28;20463;-74
2022/10/26 08:38:55;;;;;;;7.83;4.60;;;14.00;99.90;;;;;;5006113;28;20462;-74
2022/10/26 08:41:29;;;;;;;5.97;4.47;;;14.10;99.90;;;;;;5006364;28;20478;-74
2022/10/26 08:43:58;;;;;;;5.80;4.13;;;14.10;99.90;;;;;;5006071;28;20461;-74
2022/10/26 08:46:32;;;;;;;11.40;5.03;;;14.20;99.90;;;;;;5005998;28;20458;-74
2022/10/26 08:49:04;;;;;;;6.77;4.63;;;14.20;99.90;;;;;;5005645;28;20455;-74
2022/10/26 08:51:36;;;;;;;6.80;4.20;;;14.30;99.90;;;;;;5005639;28;20847;-74
2022/10/26 08:54:12;;;;;;;9.27;5.33;;;14.30;99.90;;;;;;5005666;28;20443;-74
2022/10/26 08:56:42;;;;;;;10.30;4.50;;;14.40;99.90;;;;;;5005768;28;20469;-75
2022/10/26 08:59:17;;;;;;;8.33;5.20;;;14.50;99.90;;;;;;5004985;28;20450;-74
2022/10/26 09:01:45;;;;;;;9.33;4.63;;;14.50;99.90;;;;;;5005805;28;20485;-74
2022/10/26 09:04:12;;;;;;;11.87;5.37;;;14.60;99.90;;;;;;5010405;28;20463;-74
2022/10/26 09:06:53;;;;;;;11.10;5.50;;;14.60;99.90;;;;;;5021570;28;21148;-74
2022/10/26 09:09:24;;;;;;;8.73;4.67;;;14.70;99.90;;;;;;5024973;28;20449;-74
2022/10/26 09:12:01;;;;;;;7.93;4.83;;;14.70;99.90;;;;;;5024209;28;21035;-74
2022/10/26 09:14:39;;;;;;;10.37;4.60;;;14.80;99.90;;;;;;5024506;28;20449;-75
2022/10/26 09:17:16;;;;;;;6.40;5.10;;;14.90;99.90;;;;;;5024348;28;20553;-75
2022/10/26 09:20:16;;;;;;;10.07;4.73;;;14.90;99.90;;;;;;5024118;28;20461;-75
2022/10/26 09:22:50;;;;;;;7.67;4.70;;;15.00;99.90;;;;;;5003818;28;21345;-75
2022/10/26 09:25:19;;;;;;;8.20;4.60;;;15.00;99.90;;;;;;5023678;28;20456;-75
2022/10/26 09:27:50;;;;;;;12.07;5.53;;;15.10;99.90;;;;;;5024358;28;20450;-75
2022/10/26 09:30:19;;;;;;;7.37;5.10;;;15.20;99.90;;;;;;5024034;28;20494;-75
2022/10/26 09:32:50;;;;;;;12.13;6.07;;;15.20;99.90;;;;;;5023946;28;21221;-75
2022/10/26 09:35:21;;;;;;;8.10;6.40;;;15.30;99.90;;;;;;5023683;28;20450;-75
2022/10/26 09:37:51;;;;;;;6.77;5.40;;;15.40;99.90;;;;;;5024177;28;20458;-74
2022/10/26 09:40:22;;;;;;;7.63;5.90;;;15.50;99.90;;;;;;5024275;28;20477;-75
2022/10/26 09:42:53;;;;;;;10.87;7.40;;;15.60;99.90;;;;;;5024711;28;20465;-75
2022/10/26 09:45:27;;;;;;;10.90;6.17;;;15.60;99.90;;;;;;5023737;28;20461;-75
2022/10/26 09:48:01;;;;;;;9.80;5.80;;;15.60;99.90;;;;;;5024269;28;20802;-75
2022/10/26 09:50:32;;;;;;;12.17;5.20;;;15.70;99.90;;;;;;5024209;28;20478;-75
2022/10/26 09:52:59;;;;;;;8.43;5.07;;;15.90;99.90;;;;;;5015310;28;20460;-75
2022/10/26 09:55:27;;;;;;;8.87;4.53;;;15.90;99.90;;;;;;5005834;28;20462;-74
2022/10/26 09:57:56;;;;;;;6.10;4.43;;;16.00;99.90;;;;;;5004115;28;20875;-75
2022/10/26 10:00:25;;;;;;;8.63;4.33;;;16.00;99.90;;;;;;5004339;28;20465;-75
2022/10/26 10:02:55;;;;;;;8.40;4.77;;;16.30;99.90;;;;;;5004785;28;20474;-74
2022/10/26 10:05:27;;;;;;;6.37;3.67;;;16.40;99.90;;;;;;5003841;28;20459;-74
2022/10/26 10:08:10;;;;;;;10.00;4.10;;;16.50;99.90;;;;;;5004319;28;20438;-74
2022/10/26 10:10:37;;;;;;;12.93;3.83;;;16.80;99.90;;;;;;5008538;28;20587;-74
2022/10/26 10:13:16;;;;;;;6.97;3.90;;;16.90;99.90;;;;;;5007902;28;20458;-74
2022/10/26 10:15:52;;;;;;;9.37;4.57;;;17.00;99.90;;;;;;5007292;28;20454;-74
2022/10/26 10:18:22;;;;;;;8.43;3.73;;;17.20;99.90;;;;;;5007554;28;20593;-75
2022/10/26 10:20:54;;;;;;;13.20;3.97;;;17.40;99.90;;;;;;5007583;28;20466;-75
2022/10/26 10:23:30;;;;;;;8.57;3.60;;;17.60;99.90;;;;;;5007532;28;20459;-75
2022/10/26 10:26:01;;;;;;;8.80;3.53;;;17.70;99.90;;;;;;5006549;28;21142;-75
2022/10/26 10:28:29;;;;;;;5.10;3.07;;;18.00;99.90;;;;;;5007524;28;20469;-75
2022/10/26 10:30:58;;;;;;;5.77;3.00;;;18.20;99.90;;;;;;5007624;28;20498;-74
2022/10/26 10:33:35;;;;;;;6.80;3.00;;;18.60;99.90;;;;;;5008073;28;20569;-75
2022/10/26 10:36:03;;;;;;;7.20;3.20;;;18.90;99.90;;;;;;5007476;28;20467;-75
2022/10/26 10:38:36;;;;;;;8.63;3.47;;;19.10;99.90;;;;;;5008102;28;20454;-76
2022/10/26 10:41:03;;;;;;;5.20;2.80;;;19.20;99.90;;;;;;5007631;28;20477;-75
2022/10/26 10:43:30;;;;;;;6.47;3.00;;;19.30;99.90;;;;;;5007576;28;21034;-75
2022/10/26 10:45:59;;;;;;;6.93;3.17;;;19.50;99.90;;;;;;5007812;28;20455;-75
2022/10/26 10:48:27;;;;;;;11.13;3.23;;;19.60;99.90;;;;;;5008478;28;20466;-75
2022/10/26 10:50:59;;;;;;;8.83;3.40;;;19.60;99.90;;;;;;5007976;28;21037;-75
2022/10/26 10:53:35;;;;;;;6.37;3.07;;;19.60;99.90;;;;;;5007762;28;20461;-75
2022/10/26 10:56:19;;;;;;;8.40;3.10;;;19.50;99.90;;;;;;5006907;28;20469;-75
2022/10/26 10:58:56;;;;;;;7.60;3.00;;;19.40;99.90;;;;;;5010281;28;20465;-75
2022/10/26 11:01:27;;;;;;;4.03;2.77;;;19.40;99.90;;;;;;5011084;28;20486;-75
2022/10/26 11:04:11;;;;;;;10.53;2.63;;;19.40;99.90;;;;;;5007625;28;20447;-75
2022/10/26 11:06:41;;;;;;;5.97;2.97;;;19.40;99.90;;;;;;5007863;28;20450;-75
2022/10/26 11:09:12;;;;;;;7.17;3.23;;;19.50;99.90;;;;;;5007439;28;20463;-74
2022/10/26 11:11:44;;;;;;;6.03;2.73;;;19.60;99.90;;;;;;5007897;28;20494;-75
2022/10/26 11:14:16;;;;;;;9.47;2.83;;;19.80;99.90;;;;;;5006938;28;20467;-75
2022/10/26 11:16:46;;;;;;;6.50;2.60;;;19.90;99.90;;;;;;5007609;28;20482;-75
2022/10/26 11:19:20;;;;;;;5.07;2.73;;;20.10;99.90;;;;;;5007176;28;20469;-75
2022/10/26 11:21:52;;;;;;;3.47;2.67;;;20.50;99.90;;;;;;5006418;28;20562;-75
2022/10/26 11:24:25;;;;;;;5.00;2.80;;;20.60;99.90;;;;;;5007067;28;20446;-75
2022/10/26 11:26:56;;;;;;;8.30;3.33;;;20.70;99.90;;;;;;5007618;28;20820;-75
2022/10/26 11:29:31;;;;;;;9.67;2.87;;;20.80;99.90;;;;;;5007846;28;20451;-73
2022/10/26 11:32:03;;;;;;;10.53;3.37;;;21.00;99.90;;;;;;5008298;28;20494;-73
2022/10/26 11:34:36;;;;;;;8.60;3.40;;;21.20;99.90;;;;;;5007032;28;20458;-74
2022/10/26 11:37:12;;;;;;;7.30;2.53;;;21.40;99.90;;;;;;5007789;28;20466;-73
2022/10/26 11:39:44;;;;;;;5.70;2.50;;;21.50;99.90;;;;;;5007739;28;20458;-74
2022/10/26 11:42:20;;;;;;;10.10;3.27;;;21.60;99.90;;;;;;5008215;28;20486;-73
2022/10/26 11:44:53;;;;;;;6.37;2.70;;;21.60;99.90;;;;;;5013514;28;20979;-73
2022/10/26 11:47:24;;;;;;;4.90;2.77;;;21.50;99.90;;;;;;5016924;28;20450;-73
2022/10/26 11:49:57;;;;;;;9.20;3.30;;;21.40;99.90;;;;;;5009793;28;20454;-73
2022/10/26 11:52:30;;;;;;;9.63;2.60;;;21.40;99.90;;;;;;5007304;28;20506;-73
2022/10/26 11:55:01;;;;;;;7.30;3.20;;;21.40;99.90;;;;;;5007677;28;20439;-75
2022/10/26 11:57:29;;;;;;;6.20;2.60;;;21.50;99.90;;;;;;5021128;28;20450;-75
2022/10/26 12:00:00;;;;;;;7.67;2.90;;;21.60;99.90;;;;;;5026176;28;20942;-75
2022/10/26 12:02:27;;;;;;;4.90;2.60;;;21.60;99.90;;;;;;5026291;28;20484;-75
2022/10/26 12:05:02;;;;;;;5.40;2.53;;;21.60;99.90;;;;;;5025698;28;20465;-75
2022/10/26 12:07:33;;;;;;;12.00;3.10;;;21.60;99.90;;;;;;5023011;28;20465;-75
2022/10/26 12:10:04;;;;;;;7.47;2.97;;;21.80;99.90;;;;;;5020243;28;20473;-75
2022/10/26 12:12:37;;;;;;;7.43;2.57;;;21.80;99.90;;;;;;5015367;28;20902;-75
2022/10/26 12:15:18;;;;;;;8.67;2.70;;;21.70;99.90;;;;;;5011459;28;21302;-75
2022/10/26 12:17:51;;;;;;;6.40;2.80;;;21.70;99.90;;;;;;5006672;28;20458;-77
2022/10/26 12:20:51;;;;;;;5.23;2.60;;;21.70;99.90;;;;;;5017107;28;20497;-77
2022/10/26 12:23:20;;;;;;;5.20;2.90;;;21.60;99.90;;;;;;5018748;28;20458;-76
2022/10/26 12:25:46;;;;;;;8.00;2.70;;;22.00;99.90;;;;;;5019510;28;20976;-75
2022/10/26 12:28:40;;;;;;;13.23;2.87;;;22.30;99.90;;;;;;5022663;28;20462;-73
2022/10/26 12:31:41;;;;;;;10.10;3.20;;;22.50;99.90;;;;;;5025331;28;20493;-75
2022/10/26 12:34:12;;;;;;;8.23;3.10;;;22.40;99.90;;;;;;5026679;28;20458;-78
2022/10/26 12:36:49;;;;;;;7.23;3.20;;;22.40;99.90;;;;;;5026462;28;20458;-74
2022/10/26 12:39:29;;;;;;;9.90;2.97;;;22.30;99.90;;;;;;5027643;28;20822;-74
2022/10/26 12:41:58;;;;;;;8.27;3.07;;;22.20;99.90;;;;;;5027410;28;20481;-77
2022/10/26 12:44:33;;;;;;;11.30;3.17;;;22.10;99.90;;;;;;5015824;28;20459;-75
2022/10/26 12:47:00;;;;;;;8.40;2.90;;;22.10;99.90;;;;;;5005666;28;20463;-76
2022/10/26 12:49:59;;;;;;;5.60;2.93;;;22.00;99.90;;;;;;5006215;28;20458;-73
2022/10/26 12:52:53;;;;;;;4.63;2.43;;;22.00;99.90;;;;;;5005912;28;20553;-73
2022/10/26 12:55:56;;;;;;;12.23;3.00;;;22.00;99.90;;;;;;5005519;28;20459;-72
2022/10/26 12:58:52;;;;;;;6.40;2.60;;;21.90;99.90;;;;;;5006018;28;20450;-73
2022/10/26 13:01:44;;;;;;;6.63;2.80;;;21.90;99.90;;;;;;5005881;28;20488;-74
2022/10/26 13:04:52;;;;;;;8.50;2.77;;;21.80;99.90;;;;;;5005247;28;20480;-74
2022/10/26 13:07:24;;;;;;;6.87;2.37;;;21.80;99.90;;;;;;5006112;28;20464;-76
2022/10/26 13:09:57;;;;;;;7.73;2.43;;;21.90;99.90;;;;;;5005758;28;20537;-75
2022/10/26 13:12:26;;;;;;;7.63;2.40;;;21.90;99.90;;;;;;5005820;28;20552;-75
2022/10/26 13:15:01;;;;;;;4.17;2.30;;;22.00;99.90;;;;;;5004972;28;20939;-75
2022/10/26 13:17:31;;;;;;;6.90;2.67;;;21.90;99.90;;;;;;5006160;28;20458;-74
2022/10/26 13:20:00;;;;;;;8.63;2.17;;;21.90;99.90;;;;;;5006457;28;20518;-74
2022/10/26 13:22:27;;;;;;;12.20;2.27;;;21.90;99.90;;;;;;5006030;28;20470;-75
2022/10/26 13:25:00;;;;;;;4.67;2.53;;;21.80;99.90;;;;;;5005504;28;20459;-73
2022/10/26 13:27:45;;;;;;;7.43;2.53;;;21.80;99.90;;;;;;5005951;28;20454;-73
2022/10/26 13:30:42;;;;;;;5.27;2.53;;;21.70;99.90;;;;;;5005648;28;21004;-75
2022/10/26 13:33:19;;;;;;;6.00;2.00;;;21.70;99.90;;;;;;5005983;28;20470;-77
2022/10/26 13:35:47;;;;;;;6.00;2.13;;;21.70;99.90;;;;;;5005127;28;20454;-72
2022/10/26 13:38:20;;;;;;;7.30;2.17;;;21.70;99.90;;;;;;5005366;28;20811;-75
2022/10/26 13:40:47;;;;;;;11.03;2.37;;;21.80;99.90;;;;;;5005778;28;20474;-78
2022/10/26 13:43:20;;;;;;;7.27;2.10;;;21.90;99.90;;;;;;5005191;28;20447;-76
2022/10/26 13:45:53;;;;;;;8.60;1.63;;;22.00;99.90;;;;;;5007285;28;20443;-72
2022/10/26 13:48:29;;;;;;;9.67;2.20;;;22.10;99.90;;;;;;5009414;28;20439;-73
2022/10/26 13:51:00;;;;;;;6.50;1.90;;;22.10;99.90;;;;;;5009072;28;20557;-73
2022/10/26 13:53:38;;;;;;;7.07;2.17;;;22.10;99.90;;;;;;5009090;28;20835;-75
2022/10/26 13:56:12;;;;;;;3.70;1.90;;;22.20;99.90;;;;;;5009479;28;20458;-76
2022/10/26 13:58:45;;;;;;;3.87;1.83;;;22.20;99.90;;;;;;5012175;28;20445;-77
2022/10/26 14:01:15;;;;;;;4.70;1.93;;;22.20;99.90;;;;;;5011934;28;20485;-76
2022/10/26 14:03:42;;;;;;;8.37;3.27;;;22.30;99.90;;;;;;5010630;28;20467;-76
2022/10/26 14:06:16;;;;;;;6.53;2.10;;;22.30;99.90;;;;;;5008594;28;20450;-75
2022/10/26 14:08:45;;;;;;;12.67;2.67;;;22.40;99.90;;;;;;5011130;28;20450;-77
2022/10/26 14:11:15;;;;;;;5.23;2.10;;;22.50;99.90;;;;;;5012629;28;20485;-78
2022/10/26 14:13:43;;;;;;;7.83;2.40;;;22.50;99.90;;;;;;5012738;28;20456;-76
2022/10/26 14:16:10;;;;;;;3.90;1.70;;;22.40;99.90;;;;;;5012933;28;20474;-77
2022/10/26 14:18:38;;;;;;;3.47;1.83;;;22.40;99.90;;;;;;5012381;28;20454;-78
2022/10/26 14:21:07;;;;;;;5.47;2.47;;;22.40;99.90;;;;;;5009721;28;20493;-76
2022/10/26 14:23:36;;;;;;;7.67;1.87;;;22.40;99.90;;;;;;5008617;28;20545;-76
2022/10/26 14:26:03;;;;;;;6.90;2.00;;;22.50;99.90;;;;;;5008444;28;20474;-72
2022/10/26 14:28:31;;;;;;;9.40;2.13;;;22.50;99.90;;;;;;5008845;28;20469;-70
2022/10/26 14:31:22;;;;;;;10.60;2.20;;;22.50;99.90;;;;;;5008447;28;20504;-70
2022/10/26 14:33:49;;;;;;;5.30;2.37;;;22.50;99.90;;;;;;5008575;28;20454;-70
2022/10/26 14:36:17;;;;;;;5.13;2.30;;;22.50;99.90;;;;;;5006003;28;20454;-74
2022/10/26 14:38:46;;;;;;;8.27;2.83;;;22.60;99.90;;;;;;5007756;28;20451;-74
2022/10/26 14:41:16;;;;;;;6.40;2.03;;;22.70;99.90;;;;;;5007432;28;20475;-74
2022/10/26 14:43:43;;;;;;;5.27;2.23;;;22.80;99.90;;;;;;5007440;28;20443;-74
2022/10/26 14:46:16;;;;;;;3.80;2.27;;;23.00;99.90;;;;;;5006400;28;20458;-74
2022/10/26 14:48:52;;;;;;;6.17;2.23;;;23.30;99.90;;;;;;5006881;28;20485;-75
2022/10/26 14:51:21;;;;;;;4.30;2.40;;;23.60;99.90;;;;;;5007276;28;20478;-71
2022/10/26 14:53:50;;;;;;;11.73;2.30;;;23.70;99.90;;;;;;5007188;28;20455;-73
2022/10/26 14:56:27;;;;;;;13.23;2.33;;;23.80;99.90;;;;;;5006377;28;20458;-68
2022/10/26 14:58:55;;;;;;;7.47;2.33;;;24.00;99.90;;;;;;5006815;28;20969;-72
2022/10/26 15:01:34;;;;;;;10.10;2.20;;;24.10;99.90;;;;;;5006929;28;20495;-73
2022/10/26 15:04:03;;;;;;;12.20;2.57;;;24.10;99.90;;;;;;5006402;28;20459;-69
2022/10/26 15:06:43;;;;;;;7.27;2.10;;;24.00;99.90;;;;;;5007385;28;21074;-72
2022/10/26 15:09:37;;;;;;;6.90;2.30;;;23.90;99.90;;;;;;5007450;28;20465;-72
2022/10/26 15:12:04;;;;;;;5.40;2.73;;;23.70;99.90;;;;;;5006211;28;20495;-72
2022/10/26 15:14:32;;;;;;;8.57;2.20;;;23.50;99.90;;;;;;5006981;28;20463;-72
2022/10/26 15:17:00;;;;;;;8.13;3.03;;;23.30;99.90;;;;;;5007669;28;20462;-72
2022/10/26 15:19:27;;;;;;;8.07;4.00;;;23.20;99.90;;;;;;5007233;28;20462;-72
2022/10/26 15:21:55;;;;;;;6.23;3.00;;;23.10;99.90;;;;;;5006758;28;20470;-72
2022/10/26 15:24:32;;;;;;;7.90;2.60;;;23.00;99.90;;;;;;5006681;28;20454;-73
2022/10/26 15:26:59;;;;;;;5.77;2.70;;;22.90;99.90;;;;;;5007682;28;20981;-72
2022/10/26 15:29:38;;;;;;;9.63;2.90;;;22.70;99.90;;;;;;5007711;28;20450;-71
2022/10/26 15:32:35;;;;;;;11.93;3.00;;;22.60;99.90;;;;;;5007367;28;20495;-72
2022/10/26 15:35:27;;;;;;;9.47;3.13;;;22.50;99.90;;;;;;5007156;28;20447;-70
2022/10/26 15:37:55;;;;;;;10.93;2.93;;;22.40;99.90;;;;;;5005549;28;20466;-71
2022/10/26 15:40:23;;;;;;;11.60;2.70;;;22.30;99.90;;;;;;5007457;28;20466;-71
2022/10/26 15:42:51;;;;;;;6.73;2.43;;;22.30;99.90;;;;;;5007123;28;20454;-71
2022/10/26 15:45:21;;;;;;;10.10;3.10;;;22.20;99.90;;;;;;5006578;28;20458;-70
2022/10/26 15:47:50;;;;;;;10.57;3.60;;;22.10;99.90;;;;;;5007312;28;20458;-71
2022/10/26 15:50:20;;;;;;;12.80;3.97;;;22.00;99.90;;;;;;5006706;28;20490;-71
2022/10/26 15:52:48;;;;;;;11.53;3.00;;;21.90;99.90;;;;;;5007274;28;20482;-72
2022/10/26 15:55:16;;;;;;;7.87;3.23;;;21.70;99.90;;;;;;5006574;28;20806;-72
2022/10/26 15:57:43;;;;;;;10.60;2.93;;;21.60;99.90;;;;;;5005294;28;21402;-71
2022/10/26 16:00:16;;;;;;;8.70;3.97;;;21.50;99.90;;;;;;5005227;28;20470;-71
2022/10/26 16:02:44;;;;;;;11.33;3.60;;;21.50;99.90;;;;;;5006540;28;20439;-71
2022/10/26 16:05:14;;;;;;;12.70;3.70;;;21.30;99.90;;;;;;5005860;28;20455;-72
2022/10/26 16:07:42;;;;;;;7.60;3.37;;;21.20;99.90;;;;;;5005391;28;20458;-71
2022/10/26 16:10:15;;;;;;;12.83;4.13;;;21.10;99.90;;;;;;5006735;28;20458;-77
2022/10/26 16:12:42;;;;;;;14.00;3.60;;;21.00;99.90;;;;;;5006209;28;20539;-78
2022/10/26 16:15:19;;;;;;;8.43;4.47;;;21.00;99.90;;;;;;5005655;28;20459;-78
2022/10/26 16:17:47;;;;;;;18.33;4.40;;;20.80;99.90;;;;;;5006533;28;20463;-77
2022/10/26 16:20:18;;;;;;;6.67;3.07;;;20.70;99.90;;;;;;5006819;28;20463;-77
2022/10/26 16:22:49;;;;;;;9.10;2.83;;;20.60;99.90;;;;;;5006562;28;20439;-76
2022/10/26 16:25:21;;;;;;;9.20;4.00;;;20.50;99.90;;;;;;5005975;28;20439;-75
2022/10/26 16:27:49;;;;;;;8.17;4.17;;;20.40;99.90;;;;;;5006443;28;20447;-76
2022/10/26 16:30:16;;;;;;;12.33;4.03;;;20.30;99.90;;;;;;5006556;28;20461;-76
2022/10/26 16:32:47;;;;;;;7.30;3.60;;;20.30;99.90;;;;;;5006546;28;20487;-76
2022/10/26 16:35:15;;;;;;;7.77;3.70;;;20.10;99.90;;;;;;5005916;28;20465;-76
2022/10/26 16:37:42;;;;;;;8.90;3.87;;;20.00;99.90;;;;;;5006315;28;20466;-76
2022/10/26 16:40:09;;;;;;;13.70;3.80;;;20.00;99.90;;;;;;5006413;28;20838;-77
2022/10/26 16:42:36;;;;;;;8.20;3.13;;;19.90;99.90;;;;;;5005961;28;20847;-76
2022/10/26 16:45:04;;;;;;;14.83;3.97;;;19.80;99.90;;;;;;5005952;28;20465;-75
2022/10/26 16:47:35;;;;;;;9.00;3.10;;;19.70;99.90;;;;;;5006337;28;20459;-75
2022/10/26 16:50:02;;;;;;;9.93;3.20;;;19.60;99.90;;;;;;5005874;28;20474;-75
2022/10/26 16:52:30;;;;;;;16.70;6.37;;;19.50;99.90;;;;;;5006037;28;20499;-75
2022/10/26 16:54:57;;;;;;;12.17;7.83;;;19.40;99.90;;;;;;5005362;28;20470;-75
2022/10/26 16:57:24;;;;;;;12.00;6.90;;;19.30;99.90;;;;;;5006294;28;20457;-75
2022/10/26 16:59:51;;;;;;;11.23;5.60;;;19.20;99.90;;;;;;5006234;28;20462;-75
2022/10/26 17:02:18;;;;;;;10.13;4.73;;;19.20;99.90;;;;;;5004847;28;21044;-75
2022/10/26 17:04:44;;;;;;;9.33;4.77;;;19.10;99.90;;;;;;5003860;28;20461;-75